Time,TemperatureF,DewpointF,PressureIn,WindDirection,WindDirectionDegrees,WindSpeedMPH,WindSpeedGustMPH,Humidity,HourlyPrecipIn,Conditions,Clouds,dailyrainin,SolarRadiationWatts/m^2,SoftwareType,DateUTC
2013-02-06 00:08:00,37.3,29.1,30.24,East,93,1.0,1.0,72,0.00,,,0.00,0,Wunderground v.1.15,2013-02-06 06:08:00,
2013-02-06 00:18:00,37.0,29.8,30.24,East,94,1.0,1.0,75,0.00,,,0.00,0,Wunderground v.1.15,2013-02-06 06:18:00,
2013-02-06 00:23:00,36.9,29.7,30.24,East,94,1.0,1.0,75,0.00,,,0.00,0,Wunderground v.1.15,2013-02-06 06:23:00,
2013-02-06 00:33:00,36.7,29.5,30.24,East,94,0.0,0.0,75,0.00,,,0.00,0,Wunderground v.1.15,2013-02-06 06:33:00,
2013-02-06 00:43:00,35.8,29.3,30.24,East,94,0.0,0.0,77,0.00,,,0.00,0,Wunderground v.1.15,2013-02-06 06:43:00,
2013-02-06 00:53:00,36.9,29.7,30.24,East,96,2.0,2.0,75,0.00,,,0.00,0,Wunderground v.1.15,2013-02-06 06:53:00,
2013-02-06 01:03:00,36.5,29.7,30.23,East,98,2.0,2.0,76,0.00,,,0.00,0,Wunderground v.1.15,2013-02-06 07:03:00,
2013-02-06 01:08:00,37.1,29.9,30.23,East,92,3.0,3.0,75,0.00,,,0.00,0,Wunderground v.1.15,2013-02-06 07:08:00,
2013-02-06 01:13:00,37.7,30.2,30.23,East,89,4.0,5.0,74,0.00,,,0.00,0,Wunderground v.1.15,2013-02-06 07:13:00,
2013-02-06 01:18:00,37.7,30.2,30.23,East,87,5.0,5.0,74,0.00,,,0.00,0,Wunderground v.1.15,2013-02-06 07:18:00,
2013-02-06 01:28:00,37.8,30.3,30.23,East,88,4.0,4.0,74,0.00,,,0.00,0,Wunderground v.1.15,2013-02-06 07:28:00,
2013-02-06 01:38:00,37.8,30.3,30.24,East,96,4.0,5.0,74,0.00,,,0.00,0,Wunderground v.1.15,2013-02-06 07:38:00,
2013-02-06 01:48:00,38.1,30.2,30.24,East,90,3.0,3.0,73,0.00,,,0.00,0,Wunderground v.1.15,2013-02-06 07:48:00,
2013-02-06 01:53:00,37.9,30.4,30.24,East,99,4.0,5.0,74,0.00,,,0.00,0,Wunderground v.1.15,2013-02-06 07:53:00,
2013-02-06 02:03:00,38.4,30.8,30.24,ESE,109,5.0,8.0,74,0.00,,,0.00,0,Wunderground v.1.15,2013-02-06 08:03:00,
2013-02-06 02:08:00,38.5,30.9,30.24,ESE,113,4.0,4.0,74,0.00,,,0.00,0,Wunderground v.1.15,2013-02-06 08:08:00,
2013-02-06 02:17:00,37.8,30.6,30.24,ESE,110,5.0,5.0,75,0.00,,,0.00,0,Wunderground v.1.15,2013-02-06 08:17:00,
2013-02-06 02:23:00,37.8,30.6,30.24,SE,126,4.0,5.0,75,0.00,,,0.00,0,Wunderground v.1.15,2013-02-06 08:23:00,
2013-02-06 02:28:00,37.7,30.5,30.24,SE,135,4.0,5.0,75,0.00,,,0.00,0,Wunderground v.1.15,2013-02-06 08:28:00,
2013-02-06 02:38:00,36.4,29.6,30.24,SE,128,4.0,4.0,76,0.00,,,0.00,0,Wunderground v.1.15,2013-02-06 08:38:00,
2013-02-06 02:48:00,35.4,29.2,30.24,SE,131,3.0,4.0,78,0.00,,,0.00,0,Wunderground v.1.15,2013-02-06 08:48:00,
2013-02-06 02:53:00,35.2,29.3,30.24,SE,134,4.0,4.0,79,0.00,,,0.00,0,Wunderground v.1.15,2013-02-06 08:53:00,
2013-02-06 03:07:00,34.4,28.9,30.23,ESE,120,3.0,3.0,80,0.00,,,0.00,0,Wunderground v.1.15,2013-02-06 09:07:00,
2013-02-06 03:13:00,34.3,28.8,30.23,ESE,119,3.0,7.0,80,0.00,,,0.00,0,Wunderground v.1.15,2013-02-06 09:13:00,
2013-02-06 03:23:00,34.4,29.2,30.23,SE,144,4.0,5.0,81,0.00,,,0.00,0,Wunderground v.1.15,2013-02-06 09:23:00,
2013-02-06 03:32:00,34.9,29.7,30.22,ESE,123,3.0,3.0,81,0.00,,,0.00,0,Wunderground v.1.15,2013-02-06 09:32:00,
2013-02-06 03:38:00,35.1,29.6,30.23,SE,125,3.0,3.0,80,0.00,,,0.00,0,Wunderground v.1.15,2013-02-06 09:38:00,
2013-02-06 03:47:00,34.8,29.3,30.23,SE,140,4.0,4.0,80,0.00,,,0.00,0,Wunderground v.1.15,2013-02-06 09:47:00,
2013-02-06 03:53:00,34.4,28.9,30.24,SSE,148,3.0,4.0,80,0.00,,,0.00,0,Wunderground v.1.15,2013-02-06 09:53:00,
2013-02-06 04:02:00,33.6,28.4,30.24,SE,146,3.0,5.0,81,0.00,,,0.00,0,Wunderground v.1.15,2013-02-06 10:02:00,
2013-02-06 04:12:00,33.1,28.5,30.24,SE,138,3.0,5.0,83,0.00,,,0.00,0,Wunderground v.1.15,2013-02-06 10:12:00,
2013-02-06 04:22:00,32.8,28.5,30.25,SE,141,4.0,4.0,84,0.00,,,0.00,0,Wunderground v.1.15,2013-02-06 10:22:00,
2013-02-06 04:27:00,32.8,28.5,30.25,SSE,153,3.0,3.0,84,0.00,,,0.00,0,Wunderground v.1.15,2013-02-06 10:27:00,
2013-02-06 04:37:00,32.7,28.1,30.25,SSE,158,2.0,3.0,83,0.00,,,0.00,0,Wunderground v.1.15,2013-02-06 10:37:00,
2013-02-06 04:43:00,32.8,28.5,30.25,SSE,148,3.0,3.0,84,0.00,,,0.00,0,Wunderground v.1.15,2013-02-06 10:43:00,
2013-02-06 04:52:00,32.9,28.6,30.25,SSE,155,3.0,5.0,84,0.00,,,0.00,0,Wunderground v.1.15,2013-02-06 10:52:00,
2013-02-06 04:57:00,33.0,28.7,30.25,SE,142,3.0,3.0,84,0.00,,,0.00,0,Wunderground v.1.15,2013-02-06 10:57:00,
2013-02-06 05:07:00,33.4,29.1,30.25,SE,138,3.0,4.0,84,0.00,,,0.00,0,Wunderground v.1.15,2013-02-06 11:07:00,
2013-02-06 05:17:00,33.3,29.0,30.24,ESE,117,3.0,3.0,84,0.00,,,0.00,0,Wunderground v.1.15,2013-02-06 11:17:00,
2013-02-06 05:22:00,33.3,29.0,30.24,SE,139,4.0,5.0,84,0.00,,,0.00,0,Wunderground v.1.15,2013-02-06 11:22:00,
2013-02-06 05:32:00,33.4,28.8,30.24,SSE,160,4.0,4.0,83,0.00,,,0.00,0,Wunderground v.1.15,2013-02-06 11:32:00,
2013-02-06 05:42:00,33.1,28.8,30.24,SE,137,3.0,3.0,84,0.00,,,0.00,0,Wunderground v.1.15,2013-02-06 11:42:00,
2013-02-06 05:47:00,33.1,28.8,30.24,SE,144,4.0,4.0,84,0.00,,,0.00,0,Wunderground v.1.15,2013-02-06 11:47:00,
2013-02-06 05:57:00,33.0,28.7,30.23,SE,144,3.0,3.0,84,0.00,,,0.00,0,Wunderground v.1.15,2013-02-06 11:57:00,
2013-02-06 06:02:00,33.2,29.2,30.24,SE,139,4.0,4.0,85,0.00,,,0.00,0,Wunderground v.1.15,2013-02-06 12:02:00,
2013-02-06 06:12:00,33.3,29.0,30.24,SE,140,3.0,3.0,84,0.00,,,0.00,0,Wunderground v.1.15,2013-02-06 12:12:00,
2013-02-06 06:22:00,33.3,29.0,30.24,SE,146,3.0,5.0,84,0.00,,,0.00,0,Wunderground v.1.15,2013-02-06 12:22:00,
2013-02-06 06:32:00,33.4,29.1,30.24,SE,145,3.0,3.0,84,0.00,,,0.00,0,Wunderground v.1.15,2013-02-06 12:32:00,
2013-02-06 06:37:00,33.4,29.1,30.23,SE,146,3.0,4.0,84,0.00,,,0.00,0,Wunderground v.1.15,2013-02-06 12:37:00,
2013-02-06 06:47:00,33.2,29.2,30.23,SE,140,4.0,4.0,85,0.00,,,0.00,0,Wunderground v.1.15,2013-02-06 12:47:00,
2013-02-06 06:58:00,33.0,29.0,30.24,SSE,156,3.0,5.0,85,0.00,,,0.00,0,Wunderground v.1.15,2013-02-06 12:58:00,
2013-02-06 07:08:00,32.8,28.8,30.24,SE,132,3.0,4.0,85,0.00,,,0.00,0,Wunderground v.1.15,2013-02-06 13:08:00,
2013-02-06 07:13:00,32.9,29.2,30.24,SSE,148,3.0,4.0,86,0.00,,,0.00,5,Wunderground v.1.15,2013-02-06 13:13:00,
2013-02-06 07:23:00,32.4,28.4,30.25,SSE,149,2.0,3.0,85,0.00,,,0.00,11,Wunderground v.1.15,2013-02-06 13:23:00,
2013-02-06 07:28:00,32.6,28.9,30.25,SE,137,2.0,4.0,86,0.00,,,0.00,12,Wunderground v.1.15,2013-02-06 13:28:00,
2013-02-06 07:38:00,32.9,29.2,30.25,SSE,151,3.0,3.0,86,0.00,,,0.00,21,Wunderground v.1.15,2013-02-06 13:38:00,
2013-02-06 07:43:00,32.9,28.9,30.25,SSE,159,2.0,3.0,85,0.00,,,0.00,26,Wunderground v.1.15,2013-02-06 13:43:00,
2013-02-06 07:53:00,33.1,29.1,30.25,SE,140,3.0,3.0,85,0.00,,,0.00,53,Wunderground v.1.15,2013-02-06 13:53:00,
2013-02-06 08:03:00,34.2,29.9,30.26,SE,146,3.0,4.0,84,0.00,,,0.00,83,Wunderground v.1.15,2013-02-06 14:03:00,
2013-02-06 08:13:00,35.2,30.6,30.25,SE,128,5.0,6.0,83,0.00,,,0.00,67,Wunderground v.1.15,2013-02-06 14:13:00,
2013-02-06 08:18:00,35.8,30.8,30.25,SE,137,4.0,7.0,82,0.00,,,0.00,74,Wunderground v.1.15,2013-02-06 14:18:00,
2013-02-06 08:28:00,36.8,31.5,30.26,SSE,158,5.0,5.0,81,0.00,,,0.00,169,Wunderground v.1.15,2013-02-06 14:28:00,
2013-02-06 08:33:00,37.3,31.7,30.26,SE,132,5.0,5.0,80,0.00,,,0.00,207,Wunderground v.1.15,2013-02-06 14:33:00,
2013-02-06 08:43:00,37.9,32.0,30.25,SE,133,5.0,8.0,79,0.00,,,0.00,237,Wunderground v.1.15,2013-02-06 14:43:00,
2013-02-06 08:53:00,38.7,32.1,30.25,SSE,153,6.0,10.0,77,0.00,,,0.00,269,Wunderground v.1.15,2013-02-06 14:53:00,
2013-02-06 09:03:00,39.3,32.7,30.25,SSE,157,6.0,6.0,77,0.00,,,0.00,299,Wunderground v.1.15,2013-02-06 15:03:00,
2013-02-06 09:08:00,39.9,32.9,30.25,SSE,157,6.0,7.0,76,0.00,,,0.00,313,Wunderground v.1.15,2013-02-06 15:08:00,
2013-02-06 09:18:00,41.2,33.2,30.24,SSE,148,6.0,6.0,73,0.00,,,0.00,341,Wunderground v.1.15,2013-02-06 15:18:00,
2013-02-06 09:28:00,42.5,33.8,30.24,SE,138,6.0,10.0,71,0.00,,,0.00,369,Wunderground v.1.15,2013-02-06 15:28:00,
2013-02-06 09:33:00,42.8,33.7,30.23,SE,143,7.0,10.0,70,0.00,,,0.00,383,Wunderground v.1.15,2013-02-06 15:33:00,
2013-02-06 09:43:00,44.0,34.1,30.24,South,175,6.0,7.0,68,0.00,,,0.00,408,Wunderground v.1.15,2013-02-06 15:43:00,
2013-02-06 09:53:00,44.9,33.5,30.24,SSE,164,7.0,7.0,64,0.00,,,0.00,434,Wunderground v.1.15,2013-02-06 15:53:00,
2013-02-06 09:58:00,45.2,33.3,30.24,SSE,165,8.0,8.0,63,0.00,,,0.00,446,Wunderground v.1.15,2013-02-06 15:58:00,
2013-02-06 10:08:00,45.9,34.0,30.24,SSE,150,7.0,7.0,63,0.00,,,0.00,469,Wunderground v.1.15,2013-02-06 16:08:00,
2013-02-06 10:18:00,46.8,34.0,30.24,SSE,153,6.0,6.0,61,0.00,,,0.00,489,Wunderground v.1.15,2013-02-06 16:18:00,
2013-02-06 10:28:00,47.7,33.6,30.24,South,170,6.0,10.0,58,0.00,,,0.00,510,Wunderground v.1.15,2013-02-06 16:28:00,
2013-02-06 10:38:00,48.3,34.2,30.24,SSE,161,7.0,7.0,58,0.00,,,0.00,529,Wunderground v.1.15,2013-02-06 16:38:00,
2013-02-06 10:48:00,48.9,33.9,30.23,SE,141,6.0,12.0,56,0.00,,,0.00,547,Wunderground v.1.15,2013-02-06 16:48:00,
2013-02-06 10:58:00,49.9,34.4,30.23,SSE,164,6.0,6.0,55,0.00,,,0.00,564,Wunderground v.1.15,2013-02-06 16:58:00,
2013-02-06 11:03:00,50.4,34.4,30.23,SSE,147,6.0,8.0,54,0.00,,,0.00,570,Wunderground v.1.15,2013-02-06 17:03:00,
2013-02-06 11:13:00,51.1,34.1,30.22,SSE,148,6.0,9.0,52,0.00,,,0.00,584,Wunderground v.1.15,2013-02-06 17:13:00,
2013-02-06 11:18:00,51.4,33.9,30.22,SE,139,7.0,7.0,51,0.00,,,0.00,591,Wunderground v.1.15,2013-02-06 17:18:00,
2013-02-06 11:27:00,51.9,33.3,30.21,SSW,196,7.0,8.0,49,0.00,,,0.00,603,Wunderground v.1.15,2013-02-06 17:27:00,
2013-02-06 11:32:00,52.6,34.5,30.20,SSE,158,6.0,8.0,50,0.00,,,0.00,608,Wunderground v.1.15,2013-02-06 17:32:00,
2013-02-06 11:38:00,53.1,34.9,30.20,SSE,167,5.0,5.0,50,0.00,,,0.00,613,Wunderground v.1.15,2013-02-06 17:38:00,
2013-02-06 11:47:00,53.7,36.0,30.19,SSE,165,5.0,5.0,51,0.00,,,0.00,621,Wunderground v.1.15,2013-02-06 17:47:00,
2013-02-06 11:57:00,53.9,34.1,30.19,SSE,161,7.0,7.0,47,0.00,,,0.00,628,Wunderground v.1.15,2013-02-06 17:57:00,
2013-02-06 12:03:00,54.1,34.3,30.18,SSE,149,8.0,9.0,47,0.00,,,0.00,629,Wunderground v.1.15,2013-02-06 18:03:00,
2013-02-06 12:12:00,54.9,35.6,30.18,South,171,6.0,8.0,48,0.00,,,0.00,633,Wunderground v.1.15,2013-02-06 18:12:00,
2013-02-06 12:22:00,55.6,35.1,30.17,SSW,196,6.0,10.0,46,0.00,,,0.00,633,Wunderground v.1.15,2013-02-06 18:22:00,
2013-02-06 12:32:00,55.7,34.7,30.16,SSE,150,7.0,8.0,45,0.00,,,0.00,635,Wunderground v.1.15,2013-02-06 18:32:00,
2013-02-06 12:37:00,55.8,34.8,30.16,SE,140,7.0,7.0,45,0.00,,,0.00,635,Wunderground v.1.15,2013-02-06 18:37:00,
2013-02-06 12:47:00,56.7,34.4,30.16,SSW,194,7.0,7.0,43,0.00,,,0.00,629,Wunderground v.1.15,2013-02-06 18:47:00,
2013-02-06 12:52:00,56.6,34.9,30.16,SE,141,7.0,7.0,44,0.00,,,0.00,629,Wunderground v.1.15,2013-02-06 18:52:00,
2013-02-06 12:57:00,56.8,34.5,30.16,SE,129,7.0,7.0,43,0.00,,,0.00,628,Wunderground v.1.15,2013-02-06 18:57:00,
2013-02-06 13:07:00,57.2,34.3,30.15,SSE,161,7.0,7.0,42,0.00,,,0.00,619,Wunderground v.1.15,2013-02-06 19:07:00,
2013-02-06 13:17:00,58.1,35.1,30.14,South,175,7.0,7.0,42,0.00,,,0.00,612,Wunderground v.1.15,2013-02-06 19:17:00,
2013-02-06 13:22:00,58.5,34.2,30.14,SE,134,6.0,8.0,40,0.00,,,0.00,606,Wunderground v.1.15,2013-02-06 19:22:00,
2013-02-06 13:32:00,59.0,35.3,30.13,SSE,159,6.0,7.0,41,0.00,,,0.00,596,Wunderground v.1.15,2013-02-06 19:32:00,
2013-02-06 13:42:00,59.0,34.7,30.13,South,175,7.0,10.0,40,0.00,,,0.00,582,Wunderground v.1.15,2013-02-06 19:42:00,
2013-02-06 13:52:00,59.9,34.9,30.12,South,172,7.0,8.0,39,0.00,,,0.00,573,Wunderground v.1.15,2013-02-06 19:52:00,
2013-02-06 13:57:00,59.7,35.3,30.11,SSW,194,6.0,7.0,40,0.00,,,0.00,564,Wunderground v.1.15,2013-02-06 19:57:00,
2013-02-06 14:07:00,59.5,34.5,30.11,SSE,149,7.0,7.0,39,0.00,,,0.00,548,Wunderground v.1.15,2013-02-06 20:07:00,
2013-02-06 14:17:00,59.8,35.4,30.10,South,170,7.0,7.0,40,0.00,,,0.00,534,Wunderground v.1.15,2013-02-06 20:17:00,
2013-02-06 14:27:00,60.4,35.3,30.10,South,173,5.0,5.0,39,0.00,,,0.00,515,Wunderground v.1.15,2013-02-06 20:27:00,
2013-02-06 14:32:00,60.7,35.6,30.10,SSE,158,6.0,6.0,39,0.00,,,0.00,504,Wunderground v.1.15,2013-02-06 20:32:00,
2013-02-06 14:42:00,60.9,36.4,30.09,South,178,7.0,8.0,40,0.00,,,0.00,520,Wunderground v.1.15,2013-02-06 20:42:00,
2013-02-06 14:52:00,60.7,35.6,30.09,South,190,7.0,7.0,39,0.00,,,0.00,265,Wunderground v.1.15,2013-02-06 20:52:00,
2013-02-06 14:58:00,60.9,36.4,30.08,SE,133,6.0,6.0,40,0.00,,,0.00,113,Wunderground v.1.15,2013-02-06 20:58:00,
2013-02-06 15:08:00,60.9,36.4,30.08,ESE,123,7.0,7.0,40,0.00,,,0.00,464,Wunderground v.1.15,2013-02-06 21:08:00,
2013-02-06 15:18:00,60.3,35.9,30.08,SE,141,7.0,8.0,40,0.00,,,0.00,148,Wunderground v.1.15,2013-02-06 21:18:00,
2013-02-06 15:23:00,60.2,35.8,30.08,SE,134,7.0,8.0,40,0.00,,,0.00,185,Wunderground v.1.15,2013-02-06 21:23:00,
2013-02-06 15:33:00,60.2,35.8,30.08,SE,146,7.0,7.0,40,0.00,,,0.00,132,Wunderground v.1.15,2013-02-06 21:33:00,
2013-02-06 15:43:00,60.0,36.2,30.07,SE,146,6.0,7.0,41,0.00,,,0.00,109,Wunderground v.1.15,2013-02-06 21:43:00,
2013-02-06 15:53:00,59.7,36.6,30.07,SE,126,6.0,7.0,42,0.00,,,0.00,88,Wunderground v.1.15,2013-02-06 21:53:00,
2013-02-06 15:58:00,59.6,37.1,30.07,SE,125,5.0,6.0,43,0.00,,,0.00,91,Wunderground v.1.15,2013-02-06 21:58:00,
2013-02-06 16:08:00,59.6,37.1,30.07,ESE,103,5.0,7.0,43,0.00,,,0.00,206,Wunderground v.1.15,2013-02-06 22:08:00,
2013-02-06 16:18:00,60.4,37.2,30.06,SSE,149,6.0,7.0,42,0.00,,,0.00,118,Wunderground v.1.15,2013-02-06 22:18:00,
2013-02-06 16:28:00,60.2,36.4,30.06,ESE,121,7.0,7.0,41,0.00,,,0.00,102,Wunderground v.1.15,2013-02-06 22:28:00,
2013-02-06 16:38:00,59.8,36.6,30.06,ESE,114,6.0,6.0,42,0.00,,,0.00,63,Wunderground v.1.15,2013-02-06 22:38:00,
2013-02-06 16:43:00,59.6,36.5,30.06,SE,143,6.0,6.0,42,0.00,,,0.00,49,Wunderground v.1.15,2013-02-06 22:43:00,
2013-02-06 16:53:00,59.3,36.8,30.07,SE,140,5.0,6.0,43,0.00,,,0.00,33,Wunderground v.1.15,2013-02-06 22:53:00,
2013-02-06 17:03:00,59.0,36.5,30.07,SSE,149,5.0,7.0,43,0.00,,,0.00,21,Wunderground v.1.15,2013-02-06 23:03:00,
2013-02-06 17:13:00,58.7,36.2,30.06,SE,146,6.0,6.0,43,0.00,,,0.00,25,Wunderground v.1.15,2013-02-06 23:13:00,
2013-02-06 17:23:00,58.4,36.6,30.06,SE,146,5.0,7.0,44,0.00,,,0.00,16,Wunderground v.1.15,2013-02-06 23:23:00,
2013-02-06 17:28:00,58.3,35.9,30.06,ESE,117,5.0,9.0,43,0.00,,,0.00,12,Wunderground v.1.15,2013-02-06 23:28:00,
2013-02-06 17:38:00,58.0,36.2,30.06,SSE,159,6.0,9.0,44,0.00,,,0.00,5,Wunderground v.1.15,2013-02-06 23:38:00,
2013-02-06 17:48:00,57.6,35.8,30.06,SSE,157,5.0,7.0,44,0.00,,,0.00,0,Wunderground v.1.15,2013-02-06 23:48:00,
2013-02-06 17:58:00,57.3,36.1,30.05,SSE,162,5.0,5.0,45,0.00,,,0.00,0,Wunderground v.1.15,2013-02-06 23:58:00,
2013-02-06 18:03:00,57.1,35.9,30.05,SSE,153,5.0,5.0,45,0.00,,,0.00,0,Wunderground v.1.15,2013-02-07 00:03:00,
2013-02-06 18:13:00,56.6,36.0,30.05,SSE,166,6.0,9.0,46,0.00,,,0.00,0,Wunderground v.1.15,2013-02-07 00:13:00,
2013-02-06 18:23:00,56.1,36.1,30.05,South,184,5.0,6.0,47,0.00,,,0.00,0,Wunderground v.1.15,2013-02-07 00:23:00,
2013-02-06 18:33:00,55.7,35.8,30.05,SSE,147,6.0,10.0,47,0.00,,,0.00,0,Wunderground v.1.15,2013-02-07 00:33:00,
2013-02-06 18:43:00,55.4,36.0,30.05,SSE,155,6.0,6.0,48,0.00,,,0.00,0,Wunderground v.1.15,2013-02-07 00:43:00,
2013-02-06 18:48:00,55.2,36.4,30.05,SE,134,6.0,6.0,49,0.00,,,0.00,0,Wunderground v.1.15,2013-02-07 00:48:00,
2013-02-06 18:58:00,54.7,36.4,30.05,SSE,163,6.0,7.0,50,0.00,,,0.00,0,Wunderground v.1.15,2013-02-07 00:58:00,
2013-02-06 19:08:00,54.1,36.4,30.05,SSE,162,5.0,5.0,51,0.00,,,0.00,0,Wunderground v.1.15,2013-02-07 01:08:00,
2013-02-06 19:13:00,53.9,36.7,30.05,SSE,163,4.0,5.0,52,0.00,,,0.00,0,Wunderground v.1.15,2013-02-07 01:13:00,
2013-02-06 19:23:00,53.5,36.8,30.05,SSE,150,5.0,5.0,53,0.00,,,0.00,0,Wunderground v.1.15,2013-02-07 01:23:00,
2013-02-06 19:33:00,53.0,36.8,30.05,SSE,166,4.0,7.0,54,0.00,,,0.00,0,Wunderground v.1.15,2013-02-07 01:33:00,
2013-02-06 19:42:00,52.7,37.0,30.05,SSE,165,4.0,8.0,55,0.00,,,0.00,0,Wunderground v.1.15,2013-02-07 01:42:00,
2013-02-06 19:52:00,52.8,36.6,30.05,SE,137,5.0,5.0,54,0.00,,,0.00,0,Wunderground v.1.15,2013-02-07 01:52:00,
2013-02-06 20:02:00,52.6,36.9,30.04,SE,129,5.0,7.0,55,0.00,,,0.00,0,Wunderground v.1.15,2013-02-07 02:02:00,
2013-02-06 20:08:00,52.6,36.9,30.05,SSE,147,5.0,5.0,55,0.00,,,0.00,0,Wunderground v.1.15,2013-02-07 02:08:00,
2013-02-06 20:17:00,52.7,36.5,30.05,SSE,157,5.0,9.0,54,0.00,,,0.00,0,Wunderground v.1.15,2013-02-07 02:17:00,
2013-02-06 20:27:00,52.4,36.7,30.05,SSE,148,6.0,7.0,55,0.00,,,0.00,0,Wunderground v.1.15,2013-02-07 02:27:00,
2013-02-06 20:37:00,52.2,36.5,30.05,SSE,159,5.0,6.0,55,0.00,,,0.00,0,Wunderground v.1.15,2013-02-07 02:37:00,
2013-02-06 20:42:00,52.3,36.6,30.05,SSE,161,6.0,9.0,55,0.00,,,0.00,0,Wunderground v.1.15,2013-02-07 02:42:00,
2013-02-06 20:52:00,52.4,36.7,30.05,SSE,161,6.0,9.0,55,0.00,,,0.00,0,Wunderground v.1.15,2013-02-07 02:52:00,
2013-02-06 20:57:00,52.4,36.7,30.05,SSE,167,5.0,5.0,55,0.00,,,0.00,0,Wunderground v.1.15,2013-02-07 02:57:00,
2013-02-06 21:07:00,52.1,36.9,30.06,SSE,161,5.0,5.0,56,0.00,,,0.00,0,Wunderground v.1.15,2013-02-07 03:07:00,
2013-02-06 21:17:00,52.1,36.9,30.06,South,172,5.0,5.0,56,0.00,,,0.00,0,Wunderground v.1.15,2013-02-07 03:17:00,
2013-02-06 21:27:00,52.1,36.9,30.06,SSE,161,5.0,5.0,56,0.00,,,0.00,0,Wunderground v.1.15,2013-02-07 03:27:00,
2013-02-06 21:32:00,51.9,36.7,30.06,SSE,150,5.0,7.0,56,0.00,,,0.00,0,Wunderground v.1.15,2013-02-07 03:32:00,
2013-02-06 21:42:00,51.5,36.8,30.06,SSE,167,5.0,6.0,57,0.00,,,0.00,0,Wunderground v.1.15,2013-02-07 03:42:00,
2013-02-06 21:47:00,51.4,36.7,30.06,SE,141,5.0,5.0,57,0.00,,,0.00,0,Wunderground v.1.15,2013-02-07 03:47:00,
2013-02-06 21:57:00,51.0,36.7,30.06,South,171,4.0,4.0,58,0.00,,,0.00,0,Wunderground v.1.15,2013-02-07 03:57:00,
2013-02-06 22:07:00,50.8,36.5,30.06,SSE,150,4.0,8.0,58,0.00,,,0.00,0,Wunderground v.1.15,2013-02-07 04:07:00,
2013-02-06 22:12:00,50.8,36.5,30.06,South,179,5.0,8.0,58,0.00,,,0.00,0,Wunderground v.1.15,2013-02-07 04:12:00,
2013-02-06 22:22:00,50.9,36.6,30.06,SSW,200,5.0,6.0,58,0.00,,,0.00,0,Wunderground v.1.15,2013-02-07 04:22:00,
2013-02-06 22:32:00,51.0,36.7,30.06,SSE,161,4.0,6.0,58,0.00,,,0.00,0,Wunderground v.1.15,2013-02-07 04:32:00,
2013-02-06 22:42:00,51.0,36.7,30.06,South,171,4.0,4.0,58,0.00,,,0.00,0,Wunderground v.1.15,2013-02-07 04:42:00,
2013-02-06 22:47:00,51.0,36.7,30.06,South,170,4.0,5.0,58,0.00,,,0.00,0,Wunderground v.1.15,2013-02-07 04:47:00,
2013-02-06 22:58:00,51.0,37.2,30.06,SE,143,4.0,4.0,59,0.00,,,0.00,0,Wunderground v.1.15,2013-02-07 04:58:00,
2013-02-06 23:03:00,51.0,37.2,30.06,SSE,153,5.0,5.0,59,0.00,,,0.00,0,Wunderground v.1.15,2013-02-07 05:03:00,
2013-02-06 23:08:00,50.9,37.1,30.05,SE,143,4.0,4.0,59,0.00,,,0.00,0,Wunderground v.1.15,2013-02-07 05:08:00,
2013-02-06 23:13:00,50.9,37.1,30.05,SSE,164,4.0,5.0,59,0.00,,,0.00,0,Wunderground v.1.15,2013-02-07 05:13:00,
2013-02-06 23:23:00,50.9,37.1,30.05,South,171,4.0,5.0,59,0.00,,,0.00,0,Wunderground v.1.15,2013-02-07 05:23:00,
2013-02-06 23:28:00,50.7,36.9,30.05,SSW,196,4.0,6.0,59,0.00,,,0.00,0,Wunderground v.1.15,2013-02-07 05:28:00,
2013-02-06 23:38:00,50.6,36.8,30.05,South,180,5.0,5.0,59,0.00,,,0.00,0,Wunderground v.1.15,2013-02-07 05:38:00,
2013-02-06 23:48:00,50.3,36.5,30.06,SSW,200,3.0,3.0,59,0.00,,,0.00,0,Wunderground v.1.15,2013-02-07 05:48:00,
2013-02-06 23:53:00,50.3,36.5,30.06,South,175,4.0,4.0,59,0.00,,,0.00,0,Wunderground v.1.15,2013-02-07 05:53:00,
2013-02-06 23:58:00,50.4,36.6,30.06,South,169,4.0,4.0,59,0.00,,,0.00,0,Wunderground v.1.15,2013-02-07 05:58:00,